createdAt,value
2016-11-09T00:00:32.117Z,22.17
2016-11-09T00:01:42.562Z,22.15
2016-11-09T00:02:53.032Z,22.11
2016-11-09T00:04:03.468Z,22.15
2016-11-09T00:05:13.912Z,22.05
2016-11-09T00:06:24.548Z,22.02
2016-11-09T00:07:35.023Z,22.08
2016-11-09T00:08:45.462Z,22.05
2016-11-09T00:10:10.442Z,22.08
2016-11-09T00:11:20.878Z,22.02
2016-11-09T00:12:31.320Z,22.02
2016-11-09T00:13:41.762Z,22.01
2016-11-09T00:14:52.204Z,22.05
2016-11-09T00:16:17.185Z,22.05
2016-11-09T00:17:27.727Z,22.06
2016-11-09T00:18:38.656Z,22.06
2016-11-09T00:19:49.096Z,22.01
2016-11-09T00:20:59.542Z,22.04
2016-11-09T00:22:09.981Z,22.09
2016-11-09T00:23:20.431Z,22.04
2016-11-09T00:25:55.685Z,22.09
2016-11-09T00:27:06.005Z,22.11
2016-11-09T00:28:16.326Z,22.11
2016-11-09T00:29:26.647Z,22.17
2016-11-09T00:30:36.964Z,22.21
2016-11-09T00:31:47.320Z,22.21
2016-11-09T00:32:57.743Z,22.12
2016-11-09T00:34:08.065Z,22.09
2016-11-09T00:35:18.384Z,22.19
2016-11-09T00:36:28.707Z,22.21
2016-11-09T00:37:39.027Z,22.17
2016-11-09T00:38:49.349Z,22.17
2016-11-09T00:40:14.238Z,22.14
2016-11-09T00:41:24.560Z,22.14
2016-11-09T00:42:34.878Z,21.99
2016-11-09T00:43:45.232Z,22.06
2016-11-09T00:44:55.556Z,22.02
2016-11-09T00:46:20.447Z,21.99
2016-11-09T00:47:30.774Z,22.04
2016-11-09T00:48:41.093Z,21.94
2016-11-09T00:50:06.458Z,21.99
2016-11-09T00:51:16.802Z,21.96
2016-11-09T00:52:27.123Z,21.96
2016-11-09T00:53:37.442Z,22.02
2016-11-09T00:54:47.773Z,22.01
2016-11-09T00:55:58.252Z,22.05
2016-11-09T00:57:09.190Z,22.08
2016-11-09T00:58:19.653Z,22.01
2016-11-09T00:59:30.118Z,22.01
2016-11-09T01:00:40.565Z,22.01
2016-11-09T01:01:51.023Z,22.06
2016-11-09T01:03:01.473Z,22.06
2016-11-09T01:04:11.953Z,22.02
2016-11-09T01:05:22.457Z,21.99
2016-11-09T01:06:32.919Z,22.04
2016-11-09T01:07:43.628Z,21.99
2016-11-09T01:09:08.626Z,22.04
2016-11-09T01:10:34.111Z,22.02
2016-11-09T01:13:09.539Z,21.99
2016-11-09T01:14:19.975Z,22.05
2016-11-09T01:15:30.448Z,21.99
2016-11-09T01:16:40.895Z,21.99
2016-11-09T01:18:05.879Z,22.01
2016-11-09T01:19:16.318Z,22.02
2016-11-09T01:20:27.267Z,21.98
2016-11-09T01:21:37.705Z,22.05
2016-11-09T01:24:13.362Z,21.99
2016-11-09T01:25:23.806Z,22.01
2016-11-09T01:26:48.791Z,21.96
2016-11-09T01:27:59.268Z,21.94
2016-11-09T01:29:09.705Z,21.89
2016-11-09T01:30:20.144Z,21.9
2016-11-09T01:31:30.587Z,21.91
2016-11-09T01:32:41.054Z,21.9
2016-11-09T01:33:51.497Z,21.85
2016-11-09T01:35:01.937Z,21.83
2016-11-09T01:36:12.381Z,21.82
2016-11-09T01:37:22.826Z,21.79
2016-11-09T01:38:33.268Z,21.81
2016-11-09T01:39:43.748Z,21.85
2016-11-09T01:40:54.190Z,21.79
2016-11-09T01:42:04.627Z,21.89
2016-11-09T01:43:15.064Z,21.86
2016-11-09T01:44:25.506Z,21.89
2016-11-09T01:45:35.950Z,21.86
2016-11-09T01:46:46.394Z,21.82
2016-11-09T01:47:56.834Z,21.83
2016-11-09T01:49:07.273Z,21.82
2016-11-09T01:50:17.713Z,21.77
2016-11-09T01:51:28.153Z,21.83
2016-11-09T01:52:38.591Z,21.83
2016-11-09T01:53:49.030Z,21.71
2016-11-09T01:54:59.471Z,21.71
2016-11-09T01:56:24.454Z,21.68
2016-11-09T01:57:35.021Z,21.64
2016-11-09T01:58:45.460Z,21.77
2016-11-09T01:59:55.896Z,21.73
2016-11-09T02:01:06.372Z,21.73
2016-11-09T02:02:16.818Z,21.79
2016-11-09T02:03:27.457Z,21.77
2016-11-09T02:04:37.911Z,21.79
2016-11-09T02:05:48.360Z,21.79
2016-11-09T02:06:58.796Z,21.79
2016-11-09T02:08:09.239Z,21.83
2016-11-09T02:09:19.884Z,21.73
2016-11-09T02:10:30.389Z,21.64
2016-11-09T02:11:40.826Z,21.67
2016-11-09T02:12:51.267Z,21.64
2016-11-09T02:14:01.703Z,21.71
2016-11-09T02:15:12.381Z,21.68
2016-11-09T02:16:22.815Z,21.7
2016-11-09T02:17:33.255Z,21.73
2016-11-09T02:18:58.240Z,21.66
2016-11-09T02:20:08.780Z,21.7
2016-11-09T02:21:19.223Z,21.64
2016-11-09T02:22:29.658Z,21.68
2016-11-09T02:23:40.099Z,21.73
2016-11-09T02:24:50.541Z,21.75
2016-11-09T02:26:15.542Z,21.74
2016-11-09T02:27:25.991Z,21.73
2016-11-09T02:28:50.977Z,21.75
2016-11-09T02:30:01.416Z,21.85
2016-11-09T02:31:26.601Z,21.85
2016-11-09T02:32:37.534Z,21.85
2016-11-09T02:33:48.017Z,21.79
2016-11-09T02:34:58.444Z,21.91
2016-11-09T02:36:08.870Z,21.9
2016-11-09T02:37:19.186Z,21.89
2016-11-09T02:38:29.546Z,21.81
2016-11-09T02:39:39.870Z,21.83
2016-11-09T02:40:50.191Z,21.89
2016-11-09T02:42:00.625Z,21.83
2016-11-09T02:43:10.960Z,21.77
2016-11-09T02:44:21.281Z,21.73
2016-11-09T02:45:31.605Z,21.79
2016-11-09T02:46:41.924Z,21.68
2016-11-09T02:47:52.445Z,21.73
2016-11-09T02:49:02.765Z,21.71
2016-11-09T02:50:13.095Z,21.82
2016-11-09T02:51:23.424Z,21.7
2016-11-09T02:52:33.745Z,21.68
2016-11-09T02:53:44.068Z,21.66
2016-11-09T02:54:54.390Z,21.7
2016-11-09T02:56:04.710Z,21.68
2016-11-09T02:57:15.028Z,21.59
2016-11-09T02:58:25.349Z,21.56
2016-11-09T02:59:35.767Z,21.71
2016-11-09T03:00:46.093Z,21.71
2016-11-09T03:02:10.982Z,21.66
2016-11-09T03:03:21.780Z,21.75
2016-11-09T03:04:32.200Z,21.81
2016-11-09T03:05:42.522Z,21.79
2016-11-09T03:06:52.849Z,21.74
2016-11-09T03:08:03.170Z,21.74
2016-11-09T03:09:13.492Z,21.83
2016-11-09T03:10:23.825Z,21.81
2016-11-09T03:11:34.147Z,21.83
2016-11-09T03:12:44.529Z,21.81
2016-11-09T03:13:55.422Z,21.82
2016-11-09T03:15:05.838Z,21.86
2016-11-09T03:16:30.900Z,21.74
2016-11-09T03:17:41.328Z,21.77
2016-11-09T03:18:51.743Z,21.83
2016-11-09T03:20:02.155Z,21.82
2016-11-09T03:21:12.669Z,21.81
2016-11-09T03:22:23.087Z,21.82
2016-11-09T03:23:33.499Z,21.82
2016-11-09T03:24:43.912Z,21.7
2016-11-09T03:25:54.328Z,21.83
2016-11-09T03:27:04.746Z,21.82
2016-11-09T03:28:15.157Z,21.83
2016-11-09T03:29:25.573Z,21.68
2016-11-09T03:30:35.985Z,21.64
2016-11-09T03:31:46.400Z,21.79
2016-11-09T03:32:57.012Z,21.63
2016-11-09T03:34:07.425Z,21.66
2016-11-09T03:35:17.834Z,21.68
2016-11-09T03:36:28.252Z,21.71
2016-11-09T03:37:38.666Z,21.75
2016-11-09T03:39:03.725Z,21.83
2016-11-09T03:40:14.140Z,21.68
2016-11-09T03:41:24.549Z,21.73
2016-11-09T03:42:34.991Z,21.63
2016-11-09T03:43:45.469Z,21.67
2016-11-09T03:45:10.524Z,21.67
2016-11-09T03:46:21.058Z,21.68
2016-11-09T03:47:31.591Z,21.79
2016-11-09T03:48:42.123Z,21.81
2016-11-09T03:49:52.656Z,21.77
2016-11-09T03:51:03.183Z,21.81
2016-11-09T03:52:13.716Z,21.86
2016-11-09T03:53:24.280Z,21.93
2016-11-09T03:54:34.913Z,21.98
2016-11-09T03:55:45.955Z,21.89
2016-11-09T03:56:56.487Z,21.9
2016-11-09T03:58:06.962Z,21.96
2016-11-09T03:59:17.404Z,21.96
2016-11-09T04:00:28.040Z,21.94
2016-11-09T04:01:38.475Z,21.93
2016-11-09T04:02:48.919Z,21.94
2016-11-09T04:03:59.353Z,21.99
2016-11-09T04:05:09.797Z,21.93
2016-11-09T04:06:20.340Z,21.91
2016-11-09T04:07:30.775Z,21.91
2016-11-09T04:08:41.253Z,21.96
2016-11-09T04:09:51.691Z,21.94
2016-11-09T04:11:02.133Z,22.02
2016-11-09T04:12:12.571Z,21.98
2016-11-09T04:13:23.498Z,21.99
2016-11-09T04:14:34.137Z,22.05
2016-11-09T04:15:44.576Z,21.98
2016-11-09T04:16:55.020Z,21.91
2016-11-09T04:18:05.460Z,21.86
2016-11-09T04:19:15.903Z,21.93
2016-11-09T04:20:26.371Z,21.93
2016-11-09T04:21:36.811Z,21.98
2016-11-09T04:22:47.750Z,21.98
2016-11-09T04:23:58.186Z,22.04
2016-11-09T04:25:08.624Z,21.98
2016-11-09T04:26:19.060Z,21.98
2016-11-09T04:27:29.495Z,21.96
2016-11-09T04:28:39.942Z,21.86
2016-11-09T04:29:50.386Z,21.89
2016-11-09T04:31:00.829Z,21.96
2016-11-09T04:32:11.270Z,21.93
2016-11-09T04:33:21.738Z,21.98
2016-11-09T04:34:32.198Z,21.9
2016-11-09T04:35:43.228Z,22.02
2016-11-09T04:36:53.665Z,22.01
2016-11-09T04:38:04.105Z,22.05
2016-11-09T04:39:15.032Z,21.99
2016-11-09T04:40:25.487Z,21.98
2016-11-09T04:41:36.527Z,21.96
2016-11-09T04:42:46.970Z,21.96
2016-11-09T04:43:57.414Z,21.94
2016-11-09T04:45:07.854Z,21.94
2016-11-09T04:46:18.288Z,21.89
2016-11-09T04:47:28.732Z,21.96
2016-11-09T04:48:39.178Z,21.89
2016-11-09T04:49:49.561Z,21.81
2016-11-09T04:50:59.883Z,21.79
2016-11-09T04:52:10.207Z,21.79
2016-11-09T04:53:21.003Z,21.79
2016-11-09T04:54:31.323Z,21.79
2016-11-09T04:55:41.654Z,21.77
2016-11-09T04:56:51.977Z,21.67
2016-11-09T04:58:02.297Z,21.63
2016-11-09T04:59:12.723Z,21.55
2016-11-09T05:00:52.183Z,21.66
2016-11-09T05:02:02.535Z,21.58
2016-11-09T05:03:12.873Z,21.59
2016-11-09T05:04:23.328Z,21.67
2016-11-09T05:05:33.648Z,21.63
2016-11-09T05:06:43.972Z,21.66
2016-11-09T05:07:54.293Z,21.63
2016-11-09T05:09:04.618Z,21.59
2016-11-09T05:10:14.937Z,21.55
2016-11-09T05:12:50.195Z,21.58
2016-11-09T05:14:00.516Z,21.58
2016-11-09T05:15:10.839Z,21.48
2016-11-09T05:16:21.160Z,21.55
2016-11-09T05:17:31.478Z,21.42
2016-11-09T05:18:41.801Z,21.42
2016-11-09T05:19:52.124Z,21.48
2016-11-09T05:21:02.444Z,21.45
2016-11-09T05:22:12.806Z,21.4
2016-11-09T05:23:23.128Z,21.38
2016-11-09T05:24:33.446Z,21.45
2016-11-09T05:25:43.771Z,21.48
2016-11-09T05:26:54.191Z,21.55
2016-11-09T05:28:04.514Z,21.48
2016-11-09T05:29:14.837Z,21.37
2016-11-09T05:30:25.185Z,21.3
2016-11-09T05:31:35.506Z,21.28
2016-11-09T05:32:45.862Z,21.31
2016-11-09T05:34:10.751Z,21.26
2016-11-09T05:35:21.072Z,21.28
2016-11-09T05:36:31.392Z,21.34
2016-11-09T05:37:41.709Z,21.27
2016-11-09T05:38:52.027Z,21.37
2016-11-09T05:40:02.355Z,21.38
2016-11-09T05:41:12.679Z,21.45
2016-11-09T05:42:22.996Z,21.34
2016-11-09T05:43:33.891Z,21.37
2016-11-09T05:44:44.215Z,21.33
2016-11-09T05:45:54.535Z,21.27
2016-11-09T05:47:04.854Z,21.19
2016-11-09T05:48:15.653Z,21.11
2016-11-09T05:49:25.975Z,21.19
2016-11-09T05:50:36.295Z,21.18
2016-11-09T05:51:46.623Z,21.19
2016-11-09T05:52:56.941Z,21.11
2016-11-09T05:54:07.266Z,21.21
2016-11-09T05:55:17.687Z,21.18
2016-11-09T05:56:28.008Z,21.27
2016-11-09T05:57:38.339Z,21.24
2016-11-09T05:58:48.658Z,21.31
2016-11-09T05:59:58.981Z,21.3
2016-11-09T06:01:09.501Z,21.37
2016-11-09T06:02:34.388Z,21.3
2016-11-09T06:03:59.281Z,21.36
2016-11-09T06:05:10.473Z,21.31
2016-11-09T06:06:20.796Z,21.22
2016-11-09T06:07:31.113Z,21.21
2016-11-09T06:08:41.435Z,21.19
2016-11-09T06:09:51.756Z,21.08
2016-11-09T06:11:02.079Z,21.08
2016-11-09T06:12:27.167Z,21.13
2016-11-09T06:13:37.967Z,21.26
2016-11-09T06:14:48.288Z,21.21
2016-11-09T06:15:58.607Z,21.22
2016-11-09T06:17:08.929Z,21.24
2016-11-09T06:18:19.254Z,21.19
2016-11-09T06:19:29.581Z,21.28
2016-11-09T06:20:39.903Z,21.28
2016-11-09T06:22:04.990Z,21.28
2016-11-09T06:23:15.310Z,21.3
2016-11-09T06:24:25.631Z,21.3
2016-11-09T06:25:35.954Z,21.27
2016-11-09T06:26:46.273Z,21.31
2016-11-09T06:27:56.594Z,21.34
2016-11-09T06:29:06.918Z,21.34
2016-11-09T06:30:31.843Z,21.36
2016-11-09T06:31:42.310Z,21.36
2016-11-09T06:32:52.746Z,21.3
2016-11-09T06:34:03.186Z,21.3
2016-11-09T06:35:13.628Z,21.33
2016-11-09T06:36:24.063Z,21.33
2016-11-09T06:37:34.508Z,21.34
2016-11-09T06:38:44.950Z,21.31
2016-11-09T06:39:55.387Z,21.33
2016-11-09T06:41:05.873Z,21.3
2016-11-09T06:42:30.852Z,21.27
2016-11-09T06:43:56.037Z,21.3
2016-11-09T06:45:06.540Z,21.3
2016-11-09T06:46:16.974Z,21.33
2016-11-09T06:47:27.409Z,21.28
2016-11-09T06:48:37.891Z,21.3
2016-11-09T06:49:48.432Z,21.27
2016-11-09T06:50:58.871Z,21.3
2016-11-09T06:52:09.795Z,21.3
2016-11-09T06:53:20.235Z,21.26
2016-11-09T06:54:30.674Z,21.34
2016-11-09T06:55:41.214Z,21.27
2016-11-09T06:56:51.651Z,21.27
2016-11-09T06:58:16.634Z,21.31
2016-11-09T06:59:27.074Z,21.3
2016-11-09T07:00:37.514Z,21.33
2016-11-09T07:01:47.948Z,21.28
2016-11-09T07:02:58.388Z,21.27
2016-11-09T07:04:08.768Z,21.3
2016-11-09T07:05:19.092Z,21.15
2016-11-09T07:06:29.410Z,21.11
2016-11-09T07:07:39.733Z,20.93
2016-11-09T07:08:50.054Z,20.88
2016-11-09T07:10:00.406Z,20.88
2016-11-09T07:11:10.765Z,20.93
2016-11-09T07:12:21.088Z,20.88
2016-11-09T07:13:31.889Z,20.87
2016-11-09T07:14:42.208Z,20.82
2016-11-09T07:15:52.525Z,20.93
2016-11-09T07:17:02.841Z,20.88
2016-11-09T07:18:13.365Z,21
2016-11-09T07:19:23.687Z,21.03
2016-11-09T07:20:34.021Z,21
2016-11-09T07:21:44.349Z,21.05
2016-11-09T07:22:54.671Z,21.11
2016-11-09T07:24:19.758Z,21.13
2016-11-09T07:25:30.080Z,21.12
2016-11-09T07:26:40.404Z,21
2016-11-09T07:27:50.721Z,20.87
2016-11-09T07:29:01.046Z,20.75
2016-11-09T07:30:11.368Z,20.76
2016-11-09T07:31:21.689Z,20.72
2016-11-09T07:32:32.489Z,20.78
2016-11-09T07:35:22.266Z,20.9
2016-11-09T07:36:32.939Z,20.96
2016-11-09T07:37:43.319Z,21.09
2016-11-09T07:38:53.754Z,20.98
2016-11-09T07:40:04.222Z,21.08
2016-11-09T07:41:14.661Z,21.15
2016-11-09T07:42:25.096Z,21.06
2016-11-09T07:43:35.540Z,21.05
2016-11-09T07:45:00.620Z,21.19
2016-11-09T07:46:11.097Z,21.18
2016-11-09T07:47:21.566Z,21.24
2016-11-09T07:48:46.547Z,21.21
2016-11-09T07:49:56.987Z,21.24
2016-11-09T07:52:46.956Z,21.26
2016-11-09T07:53:57.390Z,21.26
2016-11-09T07:55:08.029Z,21.22
2016-11-09T07:56:18.464Z,21.16
2016-11-09T07:57:29.399Z,21.22
2016-11-09T07:58:39.837Z,21.19
2016-11-09T07:59:50.276Z,21.24
2016-11-09T08:01:00.813Z,21.15
2016-11-09T08:02:11.257Z,21.08
2016-11-09T08:03:21.694Z,21.24
2016-11-09T08:04:32.141Z,21.19
2016-11-09T08:05:42.579Z,21.19
2016-11-09T08:06:53.116Z,21.18
2016-11-09T08:08:03.557Z,21.18
2016-11-09T08:09:13.994Z,21.13
2016-11-09T08:10:24.432Z,21.12
2016-11-09T08:12:59.859Z,20.93
2016-11-09T08:14:10.787Z,20.88
2016-11-09T08:15:35.767Z,20.81
2016-11-09T08:16:46.210Z,20.91
2016-11-09T08:17:56.845Z,20.88
2016-11-09T08:19:07.282Z,20.88
2016-11-09T08:21:42.702Z,20.79
2016-11-09T08:22:53.134Z,20.79
2016-11-09T08:24:03.571Z,20.85
2016-11-09T08:25:14.013Z,20.82
2016-11-09T08:26:24.484Z,20.93
2016-11-09T08:27:35.415Z,21
2016-11-09T08:28:45.857Z,21.13
2016-11-09T08:29:56.298Z,21.05
2016-11-09T08:31:07.230Z,21.09
2016-11-09T08:32:17.670Z,21.09
2016-11-09T08:33:28.109Z,21.21
2016-11-09T08:34:53.091Z,21.18
2016-11-09T08:36:03.525Z,21.18
2016-11-09T08:37:13.967Z,21.26
2016-11-09T08:38:24.405Z,21.18
2016-11-09T08:39:35.079Z,21.34
2016-11-09T08:40:45.542Z,21.33
2016-11-09T08:41:55.996Z,21.27
2016-11-09T08:43:06.439Z,21.33
2016-11-09T08:44:16.815Z,21.34
2016-11-09T08:45:27.290Z,21.3
2016-11-09T08:46:37.613Z,21.24
2016-11-09T08:47:47.935Z,21.09
2016-11-09T08:48:58.258Z,21.06
2016-11-09T08:50:08.612Z,21.03
2016-11-09T08:51:19.033Z,20.98
2016-11-09T08:52:29.828Z,20.96
2016-11-09T08:55:19.616Z,21.08
2016-11-09T08:56:30.041Z,20.96
2016-11-09T08:57:54.929Z,20.93
2016-11-09T08:59:05.249Z,20.85
2016-11-09T09:00:15.579Z,20.88
2016-11-09T09:01:26.791Z,20.85
2016-11-09T09:02:37.134Z,20.79
2016-11-09T09:03:47.945Z,20.83
2016-11-09T09:04:58.266Z,20.75
2016-11-09T09:06:08.591Z,20.81
2016-11-09T09:07:33.580Z,20.85
2016-11-09T09:08:43.904Z,20.82
2016-11-09T09:09:54.220Z,20.97
2016-11-09T09:11:04.541Z,21
2016-11-09T09:12:15.349Z,21.01
2016-11-09T09:13:25.822Z,21.08
2016-11-09T09:16:15.781Z,21.12
2016-11-09T09:17:26.194Z,21.21
2016-11-09T09:18:36.893Z,21.22
2016-11-09T09:19:47.966Z,21.16
2016-11-09T09:20:58.493Z,21.24
2016-11-09T09:22:09.023Z,21.19
2016-11-09T09:23:19.552Z,21.18
2016-11-09T09:24:44.814Z,21.19
2016-11-09T09:25:55.374Z,21.31
2016-11-09T09:27:05.937Z,21.31
2016-11-09T09:28:16.468Z,21.43
2016-11-09T09:29:27.097Z,21.42
2016-11-09T09:30:37.633Z,21.49
2016-11-09T09:31:48.164Z,21.46
2016-11-09T09:34:23.957Z,21.37
2016-11-09T09:35:34.533Z,21.49
2016-11-09T09:36:45.061Z,21.45
2016-11-09T09:37:55.587Z,21.43
2016-11-09T09:39:06.617Z,21.28
2016-11-09T09:40:17.145Z,21.37
2016-11-09T09:41:28.183Z,21.36
2016-11-09T09:42:38.718Z,21.37
2016-11-09T09:43:49.256Z,21.34
2016-11-09T09:44:59.788Z,21.36
2016-11-09T09:46:10.415Z,21.33
2016-11-09T09:47:20.946Z,21.37
2016-11-09T09:48:31.475Z,21.38
2016-11-09T09:49:42.007Z,21.46
2016-11-09T09:50:52.534Z,21.38
2016-11-09T09:52:03.174Z,21.37
2016-11-09T09:53:13.705Z,21.4
2016-11-09T09:54:24.231Z,21.38
2016-11-09T09:55:34.761Z,21.43
2016-11-09T09:56:45.300Z,21.37
2016-11-09T09:57:56.033Z,21.43
2016-11-09T09:59:21.087Z,21.45
2016-11-09T10:00:31.620Z,21.55
2016-11-09T10:01:56.674Z,21.64
2016-11-09T10:03:07.203Z,21.68
2016-11-09T10:04:17.737Z,21.7
2016-11-09T10:05:28.268Z,21.64
2016-11-09T10:06:38.797Z,21.7
2016-11-09T10:07:49.335Z,21.7
2016-11-09T10:09:00.064Z,21.86
2016-11-09T10:10:10.600Z,21.85
2016-11-09T10:11:21.264Z,21.75
2016-11-09T10:12:31.813Z,21.74
2016-11-09T10:13:42.350Z,21.82
2016-11-09T10:14:52.982Z,21.82
2016-11-09T10:16:03.511Z,21.96
2016-11-09T10:17:14.040Z,21.91
2016-11-09T10:18:24.570Z,21.94
2016-11-09T10:19:35.102Z,21.96
2016-11-09T10:20:45.637Z,22.04
2016-11-09T10:21:56.201Z,22.04
2016-11-09T10:23:06.743Z,22.04
2016-11-09T10:24:17.272Z,22.05
2016-11-09T10:25:27.801Z,21.99
2016-11-09T10:26:38.533Z,21.99
2016-11-09T10:27:49.569Z,21.98
2016-11-09T10:29:00.144Z,21.98
2016-11-09T10:30:10.703Z,21.99
2016-11-09T10:31:21.242Z,22.06
2016-11-09T10:32:31.808Z,22.11
2016-11-09T10:33:42.834Z,22.15
2016-11-09T10:34:53.366Z,22.19
2016-11-09T10:36:03.922Z,22.12
2016-11-09T10:37:14.456Z,22.19
2016-11-09T10:38:25.085Z,22.29
2016-11-09T10:39:35.623Z,22.26
2016-11-09T10:40:46.153Z,22.38
2016-11-09T10:41:56.687Z,22.41
2016-11-09T10:43:07.168Z,22.46
2016-11-09T10:44:32.149Z,22.54
2016-11-09T10:45:57.137Z,22.54
2016-11-09T10:47:08.066Z,22.6
2016-11-09T10:48:18.508Z,22.6
2016-11-09T10:49:43.497Z,22.66
2016-11-09T10:50:53.936Z,22.7
2016-11-09T10:52:04.374Z,22.75
2016-11-09T10:53:14.835Z,22.78
2016-11-09T10:54:25.481Z,22.82
2016-11-09T10:55:35.926Z,22.89
2016-11-09T10:56:46.369Z,22.91
2016-11-09T10:58:11.362Z,22.97
2016-11-09T10:59:21.801Z,23.07
2016-11-09T11:00:32.341Z,23.04
2016-11-09T11:01:42.781Z,23.14
2016-11-09T11:03:07.773Z,23.09
2016-11-09T11:04:18.217Z,23.09
2016-11-09T11:05:29.160Z,23.12
2016-11-09T11:06:41.424Z,23.18
2016-11-09T11:07:52.386Z,23.23
2016-11-09T11:09:02.823Z,23.38
2016-11-09T11:10:13.257Z,23.25
2016-11-09T11:11:23.945Z,23.37
2016-11-09T11:12:34.383Z,23.44
2016-11-09T11:13:59.366Z,23.52
2016-11-09T11:15:09.806Z,23.47
2016-11-09T11:16:20.348Z,23.47
2016-11-09T11:17:30.784Z,23.41
2016-11-09T11:18:41.741Z,23.42
2016-11-09T11:19:52.182Z,23.45
2016-11-09T11:21:02.680Z,23.47
2016-11-09T11:22:13.321Z,23.45
2016-11-09T11:23:23.760Z,23.47
2016-11-09T11:24:34.198Z,23.42
2016-11-09T11:25:44.644Z,23.53
2016-11-09T11:27:09.628Z,23.6
2016-11-09T11:28:20.065Z,23.77
2016-11-09T11:29:30.502Z,23.72
2016-11-09T11:30:40.943Z,23.87
2016-11-09T11:31:51.323Z,23.89
2016-11-09T11:33:01.853Z,23.82
2016-11-09T11:34:12.182Z,23.84
2016-11-09T11:35:22.534Z,23.89
2016-11-09T11:36:32.857Z,23.96
2016-11-09T11:37:43.177Z,23.99
2016-11-09T11:39:08.101Z,23.96
2016-11-09T11:40:18.430Z,24.06
2016-11-09T11:41:28.759Z,24.08
2016-11-09T11:42:53.654Z,24.19
2016-11-09T11:44:04.010Z,24.19
2016-11-09T11:45:28.906Z,24.23
2016-11-09T11:46:39.222Z,24.27
2016-11-09T11:48:04.108Z,24.23
2016-11-09T11:49:14.468Z,24.3
2016-11-09T11:50:24.794Z,24.44
2016-11-09T11:51:35.117Z,24.59
2016-11-09T11:52:45.445Z,24.59
2016-11-09T11:53:55.769Z,24.59
2016-11-09T11:55:20.860Z,24.55
2016-11-09T11:56:31.183Z,24.52
2016-11-09T11:57:41.513Z,24.68
2016-11-09T11:58:51.832Z,24.75
2016-11-09T12:00:02.171Z,24.9
2016-11-09T12:01:12.535Z,24.84
2016-11-09T12:02:22.853Z,24.99
2016-11-09T12:03:33.176Z,25.16
2016-11-09T12:04:43.602Z,25.45
2016-11-09T12:05:54.245Z,25.67
2016-11-09T12:08:29.677Z,26.12
2016-11-09T12:09:40.124Z,26.35
2016-11-09T12:10:50.570Z,26.47
2016-11-09T12:12:01.006Z,26.65
2016-11-09T12:13:11.508Z,26.65
2016-11-09T12:14:22.044Z,26.9
2016-11-09T12:15:32.579Z,26.94
2016-11-09T12:18:08.422Z,27.23
2016-11-09T12:19:19.139Z,27.3
2016-11-09T12:20:29.678Z,27.43
2016-11-09T12:21:40.217Z,27.27
2016-11-09T12:24:15.810Z,27.42
2016-11-09T12:25:40.874Z,27.48
2016-11-09T12:26:51.516Z,27.59
2016-11-09T12:28:02.046Z,27.65
2016-11-09T12:29:12.588Z,27.81
2016-11-09T12:30:23.633Z,27.68
2016-11-09T12:31:34.177Z,27.84
2016-11-09T12:32:44.718Z,27.96
2016-11-09T12:35:50.021Z,28.15
2016-11-09T12:37:00.759Z,27.96
2016-11-09T12:38:12.207Z,28.28
2016-11-09T12:41:03.137Z,28.35
2016-11-09T12:42:29.279Z,28.33
2016-11-09T12:43:40.221Z,28.35
2016-11-09T12:44:51.555Z,28.54
2016-11-09T12:48:52.640Z,28.87
2016-11-09T12:50:03.110Z,28.87
2016-11-09T12:51:28.793Z,28.77
2016-11-09T12:52:39.214Z,29.18
2016-11-09T12:53:49.636Z,29.23
2016-11-09T12:55:14.810Z,29.12
2016-11-09T12:56:39.802Z,28.94
2016-11-09T12:57:50.246Z,28.92
2016-11-09T12:59:29.765Z,29.27
2016-11-09T13:00:40.177Z,29.63
2016-11-09T13:01:50.590Z,29.64
2016-11-09T13:03:01.006Z,30.22
2016-11-09T13:04:11.420Z,30.37
2016-11-09T13:05:22.037Z,30.29
2016-11-09T13:06:47.011Z,30.16
2016-11-09T13:07:57.425Z,30.34
2016-11-09T13:09:07.845Z,30.53
2016-11-09T13:10:18.465Z,30.48
2016-11-09T13:11:29.287Z,30.32
2016-11-09T18:11:14.374Z,30.28
2016-11-09T18:12:24.819Z,30.34
2016-11-09T18:13:35.262Z,30.29
2016-11-09T18:14:45.706Z,30.25
2016-11-09T18:15:56.151Z,30.19
2016-11-09T18:17:06.698Z,30.16
2016-11-09T18:18:17.137Z,30.07
2016-11-09T18:19:27.586Z,29.86
2016-11-09T18:20:38.031Z,29.73
2016-11-09T18:21:48.479Z,29.71
2016-11-09T18:22:59.127Z,29.79
2016-11-09T18:25:34.602Z,29.73
2016-11-09T18:26:45.049Z,29.85
2016-11-09T18:27:55.601Z,29.86
2016-11-09T18:29:06.532Z,29.89
2016-11-09T18:30:16.979Z,29.89
2016-11-09T18:31:27.427Z,29.82
2016-11-09T18:32:37.878Z,29.69
2016-11-09T18:33:48.434Z,29.62
2016-11-09T18:34:58.906Z,29.48
2016-11-09T18:36:09.354Z,29.45
2016-11-09T18:37:34.341Z,29.52
2016-11-09T18:38:44.986Z,29.54
2016-11-09T18:39:55.438Z,29.52
2016-11-09T18:41:06.385Z,29.42
2016-11-09T18:42:16.830Z,29.41
2016-11-09T18:43:27.274Z,29.35
2016-11-09T18:44:52.263Z,29.45
2016-11-09T18:46:02.704Z,29.33
2016-11-09T18:47:13.151Z,29.35
2016-11-09T18:48:23.595Z,29.35
2016-11-09T18:49:34.074Z,29.41
2016-11-09T18:50:44.528Z,29.41
2016-11-09T18:51:54.978Z,29.35
2016-11-09T18:53:05.419Z,29.33
2016-11-09T18:54:15.867Z,29.32
2016-11-09T18:55:26.413Z,29.33
2016-11-09T18:56:36.855Z,29.39
2016-11-09T18:57:47.355Z,29.45
2016-11-09T18:58:57.894Z,29.44
2016-11-09T19:00:08.432Z,29.41
2016-11-09T19:02:44.265Z,29.49
2016-11-09T19:03:54.814Z,29.49
2016-11-09T19:05:05.350Z,29.32
2016-11-09T19:06:15.884Z,29.11
2016-11-09T19:07:26.417Z,29.03
2016-11-09T19:08:36.956Z,28.82
2016-11-09T19:09:47.490Z,28.61
2016-11-09T19:10:58.032Z,28.28
2016-11-09T19:12:23.296Z,27.91
2016-11-09T19:13:33.838Z,27.76
2016-11-09T19:14:44.374Z,27.61
2016-11-09T19:15:54.915Z,27.46
2016-11-09T19:17:05.451Z,27.4
2016-11-09T19:18:16.014Z,27.09
2016-11-09T19:19:26.552Z,26.84
2016-11-09T19:20:37.096Z,26.78
2016-11-09T19:21:47.634Z,26.61
2016-11-09T19:22:58.877Z,26.41
2016-11-09T19:24:09.413Z,26.32
2016-11-09T19:25:19.948Z,26.16
2016-11-09T19:26:30.981Z,26.08
2016-11-09T19:27:41.514Z,25.93
2016-11-09T19:28:52.081Z,25.9
2016-11-09T19:30:02.621Z,25.71
